Time;durP1;ratioP1;P1;durP2;ratioP2;P2;SDS_P1;SDS_P2;PMS_P1;PMS_P2;Temp;Humidity;BMP_temperature;BMP_pressure;BME280_temperature;BME280_humidity;BME280_pressure;Samples;Min_cycle;Max_cycle;Signal;HPM_P1;HPM_P2
2022/06/08 00:00:27;;;;;;;1.25;0.77;;;11.00;99.90;;;;;;5110732;27;20120;-71
2022/06/08 00:02:58;;;;;;;1.60;0.90;;;11.00;99.90;;;;;;5112093;27;20028;-71
2022/06/08 00:05:24;;;;;;;1.25;0.60;;;11.00;99.90;;;;;;5120586;27;20082;-71
2022/06/08 00:07:50;;;;;;;1.65;1.00;;;11.00;99.90;;;;;;5114706;27;20035;-71
2022/06/08 00:10:16;;;;;;;1.98;1.05;;;11.00;99.90;;;;;;5108971;27;20047;-71
2022/06/08 00:12:41;;;;;;;3.80;0.82;;;10.90;99.90;;;;;;5098820;27;20098;-71
2022/06/08 00:15:09;;;;;;;2.55;1.33;;;11.00;99.90;;;;;;5118149;27;20135;-71
2022/06/08 00:17:35;;;;;;;2.13;1.13;;;11.00;99.90;;;;;;5109812;27;20052;-71
2022/06/08 00:20:02;;;;;;;2.38;1.13;;;11.00;99.90;;;;;;5106454;27;20387;-71
2022/06/08 00:22:28;;;;;;;2.42;1.23;;;11.00;99.90;;;;;;5115734;27;20051;-71
2022/06/08 00:24:53;;;;;;;2.15;0.90;;;11.00;99.90;;;;;;5113625;27;20516;-71
2022/06/08 00:27:19;;;;;;;2.95;1.15;;;10.90;99.90;;;;;;5112292;27;20039;-71
2022/06/08 00:29:45;;;;;;;1.42;0.85;;;11.00;99.90;;;;;;5085119;27;20040;-71
2022/06/08 00:32:11;;;;;;;2.00;1.08;;;11.00;99.90;;;;;;5097078;27;20043;-71
2022/06/08 00:34:36;;;;;;;1.85;0.80;;;11.00;99.90;;;;;;5107881;27;20038;-71
2022/06/08 00:37:02;;;;;;;3.42;1.30;;;10.90;99.90;;;;;;5111959;27;21749;-71
2022/06/08 00:39:28;;;;;;;1.63;1.20;;;10.90;99.90;;;;;;5111260;27;20027;-71
2022/06/08 00:41:58;;;;;;;1.75;0.93;;;10.80;99.90;;;;;;5099134;27;20027;-71
2022/06/08 00:44:30;;;;;;;1.90;0.90;;;10.80;99.90;;;;;;5114276;27;20040;-71
2022/06/08 00:46:56;;;;;;;1.15;0.80;;;10.80;99.90;;;;;;5114692;27;20492;-71
2022/06/08 00:49:35;;;;;;;1.27;0.70;;;10.70;99.90;;;;;;5116654;27;20043;-71
2022/06/08 00:52:01;;;;;;;1.27;0.82;;;10.70;99.90;;;;;;5116385;27;20540;-71
2022/06/08 00:54:37;;;;;;;1.77;1.00;;;10.80;99.90;;;;;;5112053;27;20171;-71
2022/06/08 00:57:18;;;;;;;1.15;0.73;;;10.80;99.90;;;;;;5115054;27;20126;-71
2022/06/08 00:59:50;;;;;;;2.95;0.70;;;10.80;99.90;;;;;;5115581;27;20032;-71
2022/06/08 01:02:17;;;;;;;1.58;0.77;;;10.70;99.90;;;;;;5094831;27;20039;-71
2022/06/08 01:04:42;;;;;;;2.10;0.80;;;10.70;99.90;;;;;;5112173;27;20477;-71
2022/06/08 01:07:21;;;;;;;1.10;0.70;;;10.70;99.90;;;;;;5114229;27;20087;-71
2022/06/08 01:09:48;;;;;;;2.42;0.90;;;10.70;99.90;;;;;;5113588;27;20053;-71
2022/06/08 01:12:17;;;;;;;2.55;1.17;;;10.70;99.90;;;;;;5112568;27;20043;-71
2022/06/08 01:14:44;;;;;;;3.13;1.40;;;10.70;99.90;;;;;;5111939;27;20660;-71
2022/06/08 01:17:15;;;;;;;2.97;0.93;;;10.70;99.90;;;;;;5113448;27;20070;-71
2022/06/08 01:19:47;;;;;;;2.95;1.55;;;10.70;99.90;;;;;;5118389;27;20099;-71
2022/06/08 01:22:18;;;;;;;3.25;1.38;;;10.70;99.90;;;;;;5116373;27;20051;-71
2022/06/08 01:24:48;;;;;;;1.60;1.08;;;10.70;99.90;;;;;;5094989;28;20039;-71
2022/06/08 01:27:38;;;;;;;2.30;1.50;;;10.70;99.90;;;;;;5118295;27;20069;-71
2022/06/08 01:30:25;;;;;;;3.03;1.70;;;10.70;99.90;;;;;;5108963;27;20614;-71
2022/06/08 01:33:29;;;;;;;6.10;1.45;;;10.70;99.90;;;;;;5097427;27;20047;-71
2022/06/08 01:35:57;;;;;;;2.15;1.23;;;10.70;99.90;;;;;;5111592;27;20048;-71
2022/06/08 01:38:38;;;;;;;4.45;1.95;;;10.70;99.90;;;;;;5104792;27;20047;-71
2022/06/08 01:41:28;;;;;;;3.10;1.27;;;10.70;99.90;;;;;;5084252;27;20062;-71
2022/06/08 01:44:13;;;;;;;5.45;1.60;;;10.80;99.90;;;;;;5118070;27;20092;-71
2022/06/08 01:47:00;;;;;;;3.10;1.73;;;10.80;99.90;;;;;;5109850;27;20037;-71
2022/06/08 01:49:42;;;;;;;2.78;1.38;;;10.80;99.90;;;;;;5100417;27;20045;-71
2022/06/08 01:52:11;;;;;;;3.95;1.80;;;10.80;99.90;;;;;;5107033;27;20046;-71
2022/06/08 01:54:55;;;;;;;2.42;1.33;;;10.80;99.90;;;;;;5113140;27;20050;-71
2022/06/08 01:57:49;;;;;;;2.47;1.25;;;10.80;99.90;;;;;;5113013;27;20039;-71
2022/06/08 02:00:19;;;;;;;3.45;1.30;;;10.80;99.90;;;;;;5099186;27;20039;-71
2022/06/08 02:02:48;;;;;;;4.68;2.35;;;10.80;99.90;;;;;;5112388;27;20080;-71
2022/06/08 02:05:49;;;;;;;5.75;2.22;;;10.80;99.90;;;;;;5112634;27;20051;-71
2022/06/08 02:08:29;;;;;;;4.68;2.30;;;10.80;99.90;;;;;;5117244;27;20378;-71
2022/06/08 02:11:02;;;;;;;3.60;1.75;;;10.80;99.90;;;;;;5100134;27;20469;-71
2022/06/08 02:13:37;;;;;;;4.53;2.60;;;10.80;99.90;;;;;;5089468;28;20039;-71
2022/06/08 02:16:20;;;;;;;3.90;2.10;;;10.80;99.90;;;;;;5091656;28;20031;-71
2022/06/08 02:18:56;;;;;;;4.88;1.95;;;10.90;99.90;;;;;;5119301;27;20300;-71
2022/06/08 02:22:00;;;;;;;4.65;1.98;;;10.90;99.90;;;;;;5110330;28;20040;-71
2022/06/08 02:24:49;;;;;;;3.83;2.22;;;10.90;99.90;;;;;;5090836;28;20047;-71
2022/06/08 02:27:40;;;;;;;3.88;1.88;;;10.90;99.90;;;;;;5105187;28;20084;-71
2022/06/08 02:30:19;;;;;;;4.47;2.20;;;10.90;99.90;;;;;;5103475;28;20082;-71
2022/06/08 02:35:49;;;;;;;5.72;2.67;;;10.90;99.90;;;;;;5113468;28;20130;-71
2022/06/08 02:38:22;;;;;;;3.50;2.03;;;11.00;99.90;;;;;;5111285;27;20169;-71
2022/06/08 02:40:51;;;;;;;4.57;2.20;;;11.00;99.90;;;;;;5111809;28;20043;-71
2022/06/08 02:43:25;;;;;;;4.30;2.17;;;11.00;99.90;;;;;;5114701;28;20043;-71
2022/06/08 02:46:04;;;;;;;5.25;2.88;;;11.00;99.90;;;;;;5108516;28;20070;-71
2022/06/08 02:48:32;;;;;;;4.78;2.65;;;11.00;99.90;;;;;;5112204;28;20082;-71
2022/06/08 02:50:58;;;;;;;3.78;2.13;;;11.00;99.90;;;;;;5114899;28;20050;-71
2022/06/08 02:53:28;;;;;;;5.18;2.42;;;11.00;99.90;;;;;;5114628;28;20047;-71
2022/06/08 02:56:29;;;;;;;5.07;2.70;;;11.00;99.90;;;;;;5105171;28;20051;-70
2022/06/08 02:59:23;;;;;;;4.35;2.00;;;11.00;99.90;;;;;;5086436;27;20055;-71
2022/06/08 03:02:10;;;;;;;6.15;3.22;;;11.10;99.90;;;;;;5067900;27;20059;-71
2022/06/08 03:04:43;;;;;;;5.35;2.60;;;11.10;99.90;;;;;;5114640;27;20039;-71
2022/06/08 03:07:21;;;;;;;5.70;2.33;;;11.10;99.90;;;;;;5119585;27;20062;-71
2022/06/08 03:09:48;;;;;;;6.38;2.65;;;11.10;99.90;;;;;;5112894;27;20525;-71
2022/06/08 03:12:34;;;;;;;6.53;2.90;;;11.10;99.90;;;;;;5109003;27;20039;-71
2022/06/08 03:15:02;;;;;;;4.97;2.03;;;11.10;99.90;;;;;;5110809;27;20036;-71
2022/06/08 03:17:32;;;;;;;5.03;2.72;;;11.10;99.90;;;;;;5116223;27;20488;-71
2022/06/08 03:19:58;;;;;;;5.93;2.50;;;11.10;99.90;;;;;;5109214;27;20032;-71
2022/06/08 03:22:23;;;;;;;5.50;2.92;;;11.10;99.90;;;;;;5119382;27;20032;-71
2022/06/08 03:24:49;;;;;;;4.90;2.67;;;11.10;99.90;;;;;;5114394;27;20686;-71
2022/06/08 03:27:15;;;;;;;5.50;3.03;;;11.20;99.90;;;;;;5120087;27;20043;-71
2022/06/08 03:29:41;;;;;;;4.82;2.55;;;11.10;99.90;;;;;;5088891;27;20067;-71
2022/06/08 03:32:07;;;;;;;6.22;3.00;;;11.20;99.90;;;;;;5117563;27;20059;-71
2022/06/08 03:34:33;;;;;;;5.57;2.75;;;11.20;99.90;;;;;;5096009;27;20038;-71
2022/06/08 03:36:59;;;;;;;7.07;2.72;;;11.20;99.90;;;;;;5108148;27;20142;-71
2022/06/08 03:39:25;;;;;;;6.22;3.13;;;11.10;99.90;;;;;;5096649;27;20142;-71
2022/06/08 03:41:51;;;;;;;6.78;2.85;;;11.20;99.90;;;;;;5122128;27;20038;-71
2022/06/08 03:44:16;;;;;;;5.53;2.90;;;11.20;99.90;;;;;;5101674;27;20084;-71
2022/06/08 03:46:50;;;;;;;5.13;2.38;;;11.20;99.90;;;;;;5091728;28;20047;-71
2022/06/08 03:49:16;;;;;;;5.53;2.53;;;11.20;99.90;;;;;;5106772;27;20415;-71
2022/06/08 03:51:43;;;;;;;3.53;2.05;;;11.20;99.90;;;;;;5105183;27;20035;-71
2022/06/08 03:54:16;;;;;;;4.00;2.42;;;11.20;99.90;;;;;;5093467;27;20096;-71
2022/06/08 03:56:45;;;;;;;4.88;2.10;;;11.20;99.90;;;;;;5112132;27;20043;-71
2022/06/08 03:59:12;;;;;;;6.55;3.17;;;11.30;99.90;;;;;;5111769;27;20501;-71
2022/06/08 04:01:38;;;;;;;6.72;2.72;;;11.20;99.90;;;;;;5116505;27;20507;-71
2022/06/08 04:04:04;;;;;;;5.60;2.92;;;11.30;99.90;;;;;;5117329;27;20038;-71
2022/06/08 04:06:30;;;;;;;4.68;2.38;;;11.30;99.90;;;;;;5122373;27;20042;-71
2022/06/08 04:08:56;;;;;;;8.88;3.60;;;11.40;99.90;;;;;;5099851;27;20043;-71
2022/06/08 04:11:22;;;;;;;6.25;3.33;;;11.40;99.90;;;;;;5103297;27;20161;-71
2022/06/08 04:13:48;;;;;;;6.40;2.90;;;11.50;99.90;;;;;;5108089;27;20134;-71
2022/06/08 04:16:15;;;;;;;8.75;3.38;;;11.50;99.90;;;;;;5090404;28;20028;-71
2022/06/08 04:18:41;;;;;;;6.95;2.88;;;11.60;99.90;;;;;;5119535;27;20043;-71
2022/06/08 04:21:09;;;;;;;7.70;2.95;;;11.70;99.90;;;;;;5120383;27;20047;-71
2022/06/08 04:23:36;;;;;;;6.45;3.15;;;11.70;99.90;;;;;;5110422;27;20174;-71
2022/06/08 04:26:02;;;;;;;5.78;3.08;;;11.70;99.90;;;;;;5119556;27;20038;-71
2022/06/08 04:28:29;;;;;;;6.00;3.13;;;11.90;99.90;;;;;;5105859;27;20039;-71
2022/06/08 04:30:58;;;;;;;6.20;3.13;;;11.90;99.90;;;;;;5111568;27;20063;-71
2022/06/08 04:33:24;;;;;;;8.32;2.85;;;12.00;99.90;;;;;;5114507;27;20046;-71
2022/06/08 04:35:51;;;;;;;8.60;3.05;;;12.00;99.90;;;;;;5116116;27;20773;-71
2022/06/08 04:38:17;;;;;;;5.88;3.03;;;12.00;99.90;;;;;;5118330;27;20043;-71
2022/06/08 04:40:44;;;;;;;5.55;3.53;;;12.10;99.90;;;;;;5112337;27;20552;-71
2022/06/08 04:43:09;;;;;;;6.25;3.08;;;12.10;99.90;;;;;;5119765;27;20062;-71
2022/06/08 04:45:36;;;;;;;9.07;4.22;;;12.10;99.90;;;;;;5112406;27;20464;-71
2022/06/08 04:48:03;;;;;;;8.35;3.88;;;12.10;99.90;;;;;;5110712;27;20035;-71
2022/06/08 04:50:29;;;;;;;5.95;3.22;;;12.20;99.90;;;;;;5119211;27;20048;-71
2022/06/08 04:52:55;;;;;;;7.60;3.65;;;12.20;99.90;;;;;;5120394;27;20049;-71
2022/06/08 04:55:22;;;;;;;6.35;3.45;;;12.20;99.90;;;;;;5115344;27;20043;-71
2022/06/08 04:57:48;;;;;;;5.55;3.00;;;12.30;99.90;;;;;;5113226;27;20118;-71
2022/06/08 05:00:17;;;;;;;6.45;3.38;;;12.30;99.90;;;;;;5111796;27;20031;-71
2022/06/08 05:02:48;;;;;;;7.03;3.42;;;12.30;99.90;;;;;;5095814;27;20032;-71
2022/06/08 05:05:23;;;;;;;7.97;4.13;;;12.40;99.90;;;;;;5117863;27;20042;-71
2022/06/08 05:07:49;;;;;;;10.15;4.18;;;12.40;99.90;;;;;;5114000;27;20038;-71
2022/06/08 05:10:16;;;;;;;8.77;3.08;;;12.40;99.90;;;;;;5100269;27;20043;-71
2022/06/08 05:12:42;;;;;;;10.00;4.15;;;12.40;99.90;;;;;;5096719;27;20565;-71
2022/06/08 05:15:12;;;;;;;6.85;3.38;;;12.50;99.90;;;;;;5107556;27;20044;-71
2022/06/08 05:17:37;;;;;;;7.50;3.55;;;12.50;99.90;;;;;;5115452;27;20055;-71
2022/06/08 05:20:05;;;;;;;7.35;3.78;;;12.50;99.90;;;;;;5120308;27;20038;-71
2022/06/08 05:22:31;;;;;;;10.68;4.30;;;12.50;99.90;;;;;;5112755;27;20036;-71
2022/06/08 05:24:56;;;;;;;9.18;4.18;;;12.60;99.90;;;;;;5116223;27;20127;-71
2022/06/08 05:27:22;;;;;;;7.22;3.50;;;12.50;99.90;;;;;;5111473;27;20043;-71
2022/06/08 05:29:48;;;;;;;6.90;3.47;;;12.70;99.90;;;;;;5117037;27;20039;-71
2022/06/08 05:32:13;;;;;;;8.13;3.75;;;12.60;99.90;;;;;;5114896;27;20033;-71
2022/06/08 05:34:39;;;;;;;8.18;3.97;;;12.70;99.90;;;;;;5115428;27;21573;-71
2022/06/08 05:37:05;;;;;;;10.35;3.88;;;12.70;99.90;;;;;;5108537;27;20070;-71
2022/06/08 05:39:30;;;;;;;8.02;4.57;;;12.70;99.90;;;;;;5105673;27;20035;-72
2022/06/08 05:41:56;;;;;;;8.02;3.60;;;12.80;99.90;;;;;;5110363;27;20673;-71
2022/06/08 05:44:23;;;;;;;9.02;4.22;;;12.90;99.90;;;;;;5094967;27;20032;-71
2022/06/08 05:46:50;;;;;;;9.23;3.67;;;12.90;99.90;;;;;;5116263;27;20050;-71
2022/06/08 05:49:16;;;;;;;10.32;4.50;;;13.00;99.90;;;;;;5112883;27;20173;-71
2022/06/08 05:51:43;;;;;;;9.95;4.47;;;13.00;99.90;;;;;;5090725;27;20043;-71
2022/06/08 05:54:09;;;;;;;10.02;4.45;;;13.10;99.90;;;;;;5083642;27;20057;-71
2022/06/08 05:56:35;;;;;;;8.38;3.83;;;13.10;99.90;;;;;;5107399;27;20046;-71
2022/06/08 05:59:00;;;;;;;8.63;4.55;;;13.20;99.90;;;;;;5099129;27;20039;-71
2022/06/08 06:01:27;;;;;;;10.48;4.28;;;13.20;99.90;;;;;;5110954;27;20038;-70
2022/06/08 06:03:53;;;;;;;7.72;3.55;;;13.30;99.90;;;;;;5108250;27;20043;-71
2022/06/08 06:06:18;;;;;;;7.95;4.35;;;13.40;99.90;;;;;;5106679;27;20031;-71
2022/06/08 06:08:45;;;;;;;8.23;4.32;;;13.40;99.90;;;;;;5109344;27;20039;-72
2022/06/08 06:11:15;;;;;;;18.83;4.05;;;13.50;99.90;;;;;;5091602;28;20046;-70
2022/06/08 06:13:41;;;;;;;6.90;4.03;;;13.60;99.90;;;;;;5083801;28;20721;-72
2022/06/08 06:16:07;;;;;;;9.25;3.88;;;13.80;99.90;;;;;;5097180;27;20050;-72
2022/06/08 06:18:33;;;;;;;8.88;4.10;;;13.90;99.90;;;;;;5096195;27;20048;-70
2022/06/08 06:20:59;;;;;;;8.27;3.20;;;14.00;99.90;;;;;;5107138;28;20105;-71
2022/06/08 06:23:26;;;;;;;8.50;4.13;;;14.00;99.90;;;;;;5097982;27;20046;-71
2022/06/08 06:25:52;;;;;;;6.22;3.25;;;14.10;99.90;;;;;;5081054;28;20426;-70
2022/06/08 06:28:18;;;;;;;6.50;2.97;;;14.20;99.90;;;;;;5110628;28;20074;-71
2022/06/08 06:30:44;;;;;;;11.48;4.50;;;14.20;99.90;;;;;;5102847;27;20047;-71
2022/06/08 06:33:14;;;;;;;6.85;4.05;;;14.30;99.90;;;;;;5113337;27;20039;-71
2022/06/08 06:35:41;;;;;;;7.25;3.35;;;14.40;99.90;;;;;;5095320;28;20440;-71
2022/06/08 06:38:08;;;;;;;8.18;3.60;;;14.60;99.90;;;;;;5118869;27;20044;-71
2022/06/08 06:40:35;;;;;;;7.40;4.13;;;15.10;99.90;;;;;;5102668;27;20039;-71
2022/06/08 06:43:02;;;;;;;7.40;3.53;;;15.80;99.90;;;;;;5116008;27;20359;-71
2022/06/08 06:45:28;;;;;;;8.43;3.67;;;16.60;99.90;;;;;;5111740;27;20092;-70
2022/06/08 06:47:54;;;;;;;6.93;3.38;;;17.50;99.90;;;;;;5111429;28;20051;-71
2022/06/08 06:50:19;;;;;;;5.47;2.95;;;18.00;99.90;;;;;;5109563;28;20047;-70
2022/06/08 06:52:45;;;;;;;6.28;2.88;;;18.10;99.90;;;;;;5117647;27;20408;-71
2022/06/08 06:55:24;;;;;;;4.65;2.63;;;17.90;99.90;;;;;;5099321;27;20062;-71
2022/06/08 06:57:50;;;;;;;6.25;2.85;;;17.60;99.90;;;;;;5104408;27;20038;-71
2022/06/08 07:00:16;;;;;;;5.82;2.78;;;17.40;99.90;;;;;;5109555;27;20032;-71
2022/06/08 07:02:43;;;;;;;6.75;3.47;;;17.10;99.90;;;;;;5110881;27;20083;-70
2022/06/08 07:05:21;;;;;;;5.93;2.38;;;16.90;99.90;;;;;;5109560;27;20023;-70
2022/06/08 07:07:47;;;;;;;6.05;2.83;;;16.70;99.90;;;;;;5108936;27;20048;-71
2022/06/08 07:10:13;;;;;;;7.13;3.10;;;16.60;99.90;;;;;;5110641;27;20481;-71
2022/06/08 07:12:39;;;;;;;5.90;2.63;;;16.50;99.90;;;;;;5113617;27;20063;-71
2022/06/08 07:15:05;;;;;;;5.43;2.75;;;16.50;99.90;;;;;;5107108;27;20071;-70
2022/06/08 07:17:31;;;;;;;5.18;2.30;;;16.40;99.90;;;;;;5100284;27;20509;-70
2022/06/08 07:19:57;;;;;;;5.78;2.58;;;16.50;99.90;;;;;;5108069;27;20050;-71
2022/06/08 07:22:22;;;;;;;4.45;2.03;;;16.40;99.90;;;;;;5103877;27;20447;-70
2022/06/08 07:24:48;;;;;;;4.53;2.00;;;16.40;99.90;;;;;;5102368;27;20473;-70
2022/06/08 07:27:14;;;;;;;4.88;2.33;;;16.40;99.90;;;;;;5091019;27;20092;-70
2022/06/08 07:29:40;;;;;;;3.72;1.90;;;16.50;99.90;;;;;;5106184;27;20039;-70
2022/06/08 07:32:06;;;;;;;3.90;1.90;;;16.50;99.90;;;;;;5106760;27;20039;-70
2022/06/08 07:34:32;;;;;;;5.22;2.60;;;16.50;99.90;;;;;;5088294;27;20023;-70
2022/06/08 07:37:00;;;;;;;5.25;2.28;;;16.60;99.90;;;;;;5103210;27;20637;-70
2022/06/08 07:39:26;;;;;;;3.40;1.70;;;16.60;99.90;;;;;;5112142;27;20046;-70
2022/06/08 07:41:52;;;;;;;4.63;1.90;;;16.60;99.90;;;;;;5108067;27;20036;-70
2022/06/08 07:44:19;;;;;;;2.65;1.40;;;16.60;99.90;;;;;;5107864;27;20046;-69
2022/06/08 07:46:46;;;;;;;2.88;1.23;;;16.70;99.90;;;;;;5105063;27;20049;-70
2022/06/08 07:51:58;;;;;;;4.25;2.00;;;16.70;99.90;;;;;;5103924;27;20048;-67
2022/06/08 07:54:26;;;;;;;3.45;1.90;;;16.70;99.90;;;;;;5111912;27;20043;-67
2022/06/08 07:56:53;;;;;;;2.70;1.23;;;16.80;99.90;;;;;;5105933;27;20042;-67
2022/06/08 07:59:21;;;;;;;3.33;1.73;;;16.90;99.90;;;;;;5105475;27;20039;-67
2022/06/08 08:01:47;;;;;;;3.08;1.65;;;17.00;99.90;;;;;;5112667;27;20043;-67
2022/06/08 08:04:13;;;;;;;6.65;1.30;;;17.00;99.90;;;;;;5107670;27;20048;-68
2022/06/08 08:06:38;;;;;;;3.03;1.48;;;17.10;99.90;;;;;;5110595;27;20031;-67
2022/06/08 08:09:04;;;;;;;3.97;1.65;;;17.10;99.90;;;;;;5104914;27;20091;-67
2022/06/08 08:11:30;;;;;;;3.42;1.33;;;17.00;99.90;;;;;;5107691;27;20083;-67
2022/06/08 08:13:56;;;;;;;2.50;1.02;;;17.10;99.90;;;;;;5104278;27;20517;-67
2022/06/08 08:16:21;;;;;;;2.10;0.98;;;17.10;99.90;;;;;;5096493;28;20428;-67
2022/06/08 08:18:48;;;;;;;2.80;1.20;;;17.10;99.90;;;;;;5095169;27;20058;-67
2022/06/08 08:21:13;;;;;;;2.15;0.85;;;17.10;99.90;;;;;;5112762;27;20114;-67
2022/06/08 08:23:39;;;;;;;3.55;1.00;;;17.10;99.90;;;;;;5103589;27;20138;-67
2022/06/08 08:26:05;;;;;;;4.30;1.13;;;17.20;99.90;;;;;;5104409;27;20039;-67
2022/06/08 08:28:30;;;;;;;3.30;1.25;;;17.30;99.90;;;;;;5102519;27;20039;-67
2022/06/08 08:30:56;;;;;;;2.20;1.10;;;17.30;99.90;;;;;;5107121;27;20027;-67
2022/06/08 08:33:21;;;;;;;4.28;1.67;;;17.40;99.90;;;;;;5102397;27;20044;-67
2022/06/08 08:35:47;;;;;;;2.75;1.42;;;17.40;99.90;;;;;;5102035;27;20046;-67
2022/06/08 08:38:12;;;;;;;2.45;0.90;;;17.50;99.90;;;;;;5098462;27;20062;-67
2022/06/08 08:40:58;;;;;;;2.58;1.02;;;17.50;99.90;;;;;;5102081;27;20123;-67
2022/06/08 08:43:28;;;;;;;2.30;1.27;;;17.50;99.90;;;;;;5104021;27;20109;-67
2022/06/08 08:46:12;;;;;;;2.47;1.10;;;17.60;99.90;;;;;;5103004;27;20058;-67
2022/06/08 08:49:23;;;;;;;2.00;1.02;;;17.60;99.90;;;;;;5105665;27;22190;-67
2022/06/08 08:52:13;;;;;;;2.97;1.48;;;17.60;99.90;;;;;;5095405;27;20151;-66
2022/06/08 08:54:53;;;;;;;3.42;1.55;;;17.70;99.90;;;;;;5099725;27;20114;-67
2022/06/08 08:57:27;;;;;;;4.65;1.88;;;17.80;99.90;;;;;;5100487;27;20396;-67
2022/06/08 08:59:52;;;;;;;3.30;1.33;;;17.80;99.90;;;;;;5102107;27;20110;-67
2022/06/08 09:05:15;;;;;;;3.90;1.80;;;17.90;99.90;;;;;;5092469;27;20134;-66
2022/06/08 09:07:42;;;;;;;2.90;1.25;;;17.90;99.90;;;;;;5101707;27;20031;-66
2022/06/08 09:10:16;;;;;;;2.95;1.52;;;17.90;99.90;;;;;;5099826;27;20044;-66
2022/06/08 09:12:44;;;;;;;3.85;2.00;;;18.10;99.90;;;;;;5098942;27;20031;-65
2022/06/08 09:15:12;;;;;;;2.72;1.40;;;18.10;99.90;;;;;;5104354;27;20042;-66
2022/06/08 09:17:48;;;;;;;3.50;1.52;;;18.20;99.90;;;;;;5092117;27;20088;-66
2022/06/08 09:20:23;;;;;;;4.03;1.83;;;18.30;99.90;;;;;;5102996;27;20497;-67
2022/06/08 09:22:52;;;;;;;2.28;1.30;;;18.30;99.90;;;;;;5102305;27;20122;-66
2022/06/08 09:25:33;;;;;;;3.17;1.42;;;18.40;99.90;;;;;;5093412;27;20046;-66
2022/06/08 09:27:59;;;;;;;2.88;1.40;;;18.40;99.90;;;;;;5109482;27;20046;-66
2022/06/08 09:30:28;;;;;;;5.72;1.90;;;18.40;99.90;;;;;;5100257;27;20048;-66
2022/06/08 09:33:18;;;;;;;3.58;1.73;;;18.40;99.90;;;;;;5092104;27;20122;-66
2022/06/08 09:35:54;;;;;;;2.72;1.23;;;18.40;99.90;;;;;;5103594;27;20096;-66
2022/06/08 09:38:23;;;;;;;5.50;1.88;;;18.40;99.90;;;;;;5103080;27;20035;-66
2022/06/08 09:40:57;;;;;;;5.63;1.58;;;18.30;99.90;;;;;;5104067;27;20449;-66
2022/06/08 09:43:44;;;;;;;3.00;1.52;;;18.30;99.90;;;;;;5106181;27;20039;-66
2022/06/08 09:53:06;;;;;;;2.80;1.38;;;18.10;99.90;;;;;;5102579;27;20055;-66
2022/06/08 09:55:56;;;;;;;2.20;0.98;;;18.10;99.90;;;;;;5106518;27;20043;-66
2022/06/08 09:58:38;;;;;;;3.75;1.70;;;18.00;99.90;;;;;;5102693;27;20521;-66
2022/06/08 10:01:19;;;;;;;2.03;1.15;;;18.00;99.90;;;;;;5106203;27;20308;-66
2022/06/08 10:04:00;;;;;;;2.80;1.58;;;18.00;99.90;;;;;;5099811;27;20628;-66
2022/06/08 10:06:49;;;;;;;5.18;1.52;;;18.10;99.90;;;;;;5103380;27;20088;-66
2022/06/08 10:09:43;;;;;;;2.60;1.33;;;18.30;99.90;;;;;;5102263;27;20095;-66
2022/06/08 10:12:37;;;;;;;2.70;1.40;;;18.40;99.90;;;;;;5101060;27;20078;-66
2022/06/08 10:15:24;;;;;;;2.65;1.30;;;18.50;99.90;;;;;;5104030;27;20511;-66
2022/06/08 10:18:00;;;;;;;4.03;1.88;;;18.60;99.90;;;;;;5106091;27;20039;-66
2022/06/08 10:20:44;;;;;;;1.92;1.17;;;18.50;99.90;;;;;;5100013;28;20467;-66
2022/06/08 10:23:28;;;;;;;2.28;1.08;;;18.60;99.90;;;;;;5106341;28;20071;-66
2022/06/08 10:26:03;;;;;;;1.52;0.90;;;18.60;99.90;;;;;;5102910;28;20363;-66
2022/06/08 10:28:41;;;;;;;1.63;0.90;;;18.60;99.90;;;;;;5103673;28;20122;-68
2022/06/08 10:31:13;;;;;;;4.10;1.50;;;18.70;99.90;;;;;;5107725;28;20531;-68
2022/06/08 10:33:56;;;;;;;4.15;1.10;;;18.80;99.90;;;;;;5100369;28;20491;-68
2022/06/08 10:36:23;;;;;;;2.45;1.00;;;18.80;99.90;;;;;;5099024;28;20475;-68
2022/06/08 10:38:49;;;;;;;2.10;0.80;;;18.80;99.90;;;;;;5105745;28;20118;-68
2022/06/08 10:44:44;;;;;;;1.95;1.10;;;18.90;99.90;;;;;;5093581;28;20039;-68
2022/06/08 10:47:13;;;;;;;2.70;1.20;;;19.00;99.90;;;;;;5109040;28;20040;-67
2022/06/08 10:49:38;;;;;;;2.60;1.10;;;19.10;99.90;;;;;;5088859;28;20043;-67
2022/06/08 10:52:19;;;;;;;4.22;1.00;;;19.10;99.90;;;;;;5097145;28;20397;-67
2022/06/08 10:55:17;;;;;;;1.40;0.80;;;19.10;99.90;;;;;;5105900;28;20071;-67
2022/06/08 10:57:44;;;;;;;1.63;1.05;;;19.20;99.90;;;;;;5073537;28;20093;-67
2022/06/08 11:00:19;;;;;;;2.50;1.05;;;19.30;99.90;;;;;;5072837;28;20506;-68
2022/06/08 11:02:49;;;;;;;1.98;0.73;;;19.30;99.90;;;;;;5098201;28;20023;-67
2022/06/08 11:05:43;;;;;;;1.92;1.00;;;19.40;99.90;;;;;;5092834;28;20027;-68
2022/06/08 11:08:09;;;;;;;3.58;1.25;;;19.50;99.90;;;;;;5088282;28;20603;-68
2022/06/08 11:10:44;;;;;;;2.33;0.95;;;19.50;99.90;;;;;;5077879;28;20035;-68
2022/06/08 11:13:30;;;;;;;1.67;0.85;;;19.60;99.90;;;;;;5087713;28;20040;-68
2022/06/08 11:15:59;;;;;;;;;;;19.70;99.90;;;;;;5095727;28;20132;-68
2022/06/08 11:18:46;;;;;;;2.22;1.10;;;19.70;99.90;;;;;;5100480;28;19942;-68
2022/06/08 11:21:15;;;;;;;2.70;1.08;;;19.90;99.90;;;;;;5107033;27;20047;-68
2022/06/08 11:23:59;;;;;;;3.55;1.27;;;19.90;99.90;;;;;;5097533;27;20499;-68
2022/06/08 11:26:36;;;;;;;2.40;1.15;;;20.00;99.90;;;;;;5092151;27;20238;-68
2022/06/08 11:29:17;;;;;;;2.58;1.33;;;20.00;99.90;;;;;;5097145;27;20074;-68
2022/06/08 11:31:42;;;;;;;2.17;1.17;;;19.90;99.90;;;;;;5103627;27;20433;-67
2022/06/08 11:34:20;;;;;;;1.98;1.20;;;19.90;99.90;;;;;;5100786;27;20028;-67
2022/06/08 11:37:23;;;;;;;2.17;1.20;;;19.80;99.90;;;;;;5095961;27;20481;-68
2022/06/08 11:40:12;;;;;;;2.08;1.52;;;19.80;99.90;;;;;;5092347;27;20568;-68
2022/06/08 11:43:14;;;;;;;3.58;1.80;;;19.70;99.90;;;;;;5102211;27;20028;-70
2022/06/08 11:45:44;;;;;;;3.22;1.85;;;19.70;99.90;;;;;;5073741;27;20062;-70
2022/06/08 11:48:25;;;;;;;2.95;1.98;;;19.70;99.90;;;;;;5095017;27;20062;-67
2022/06/08 11:50:56;;;;;;;3.55;2.10;;;19.50;99.90;;;;;;5096227;27;20065;-69
2022/06/08 11:53:33;;;;;;;3.38;1.73;;;19.40;99.90;;;;;;5097386;27;20044;-69
2022/06/08 11:56:08;;;;;;;2.78;1.80;;;19.30;99.90;;;;;;5102137;27;20031;-69
2022/06/08 11:58:35;;;;;;;2.40;1.90;;;19.10;99.90;;;;;;5083316;28;20048;-69
2022/06/08 12:01:14;;;;;;;2.72;1.58;;;19.00;99.90;;;;;;5099482;27;20512;-69
2022/06/08 12:03:44;;;;;;;4.07;2.03;;;18.80;99.90;;;;;;5094741;27;20044;-69
2022/06/08 12:06:24;;;;;;;4.07;1.67;;;18.80;99.90;;;;;;5092948;27;20039;-69
2022/06/08 12:09:10;;;;;;;1.90;1.33;;;18.70;99.90;;;;;;5098374;27;20040;-69
2022/06/08 12:11:41;;;;;;;2.22;1.10;;;18.60;99.90;;;;;;5109578;27;20416;-68
2022/06/08 12:14:23;;;;;;;1.52;0.70;;;18.60;99.90;;;;;;5103959;27;20520;-68
2022/06/08 12:17:03;;;;;;;1.20;0.50;;;18.40;99.90;;;;;;5105336;27;20056;-69
2022/06/08 12:19:38;;;;;;;1.17;0.45;;;18.30;99.90;;;;;;5084587;28;20623;-69
2022/06/08 12:22:09;;;;;;;;;;;18.20;99.90;;;;;;5101774;27;20042;-68
2022/06/08 12:24:35;;;;;;;0.70;0.30;;;18.10;99.90;;;;;;5108220;27;19935;-68
2022/06/08 12:27:03;;;;;;;0.55;0.40;;;18.10;99.90;;;;;;5103692;27;20565;-69
2022/06/08 12:29:47;;;;;;;0.82;0.30;;;18.00;99.90;;;;;;5102199;27;20044;-71
2022/06/08 12:32:47;;;;;;;0.82;0.30;;;17.90;99.90;;;;;;5103375;27;20068;-69
2022/06/08 12:35:23;;;;;;;0.30;0.22;;;17.70;99.90;;;;;;5079655;27;20052;-69
2022/06/08 12:38:03;;;;;;;0.63;0.30;;;17.60;99.90;;;;;;5100883;27;20043;-69
2022/06/08 12:40:32;;;;;;;1.40;0.55;;;17.40;99.90;;;;;;5096007;27;20063;-69
2022/06/08 12:43:18;;;;;;;0.65;0.50;;;17.30;99.90;;;;;;5079001;28;20095;-69
2022/06/08 12:46:02;;;;;;;2.75;0.50;;;17.10;99.90;;;;;;5087247;27;20485;-69
2022/06/08 12:48:36;;;;;;;1.50;0.60;;;17.00;99.90;;;;;;5090491;27;20409;-69
2022/06/08 12:51:29;;;;;;;0.43;0.30;;;16.80;99.90;;;;;;5093220;27;21397;-69
2022/06/08 12:53:56;;;;;;;0.47;0.30;;;16.70;99.90;;;;;;5075062;27;20389;-69
2022/06/08 12:56:22;;;;;;;0.85;0.40;;;16.70;99.90;;;;;;5094023;27;20052;-69
2022/06/08 12:58:49;;;;;;;0.55;0.40;;;16.60;99.90;;;;;;5095242;27;20190;-69
2022/06/08 13:01:16;;;;;;;1.17;0.50;;;16.60;99.90;;;;;;5098692;27;20044;-69
2022/06/08 13:03:43;;;;;;;1.27;0.63;;;16.60;99.90;;;;;;5075199;28;20032;-69
2022/06/08 13:06:10;;;;;;;1.48;0.90;;;16.60;99.90;;;;;;5096963;27;20073;-70
2022/06/08 13:08:36;;;;;;;1.80;0.75;;;16.60;99.90;;;;;;5093212;27;20130;-70
2022/06/08 13:11:06;;;;;;;1.60;1.00;;;16.60;99.90;;;;;;5096590;27;20159;-69
2022/06/08 13:13:38;;;;;;;2.53;1.35;;;16.70;99.90;;;;;;5095711;27;20367;-69
2022/06/08 13:16:12;;;;;;;2.28;1.10;;;16.70;99.90;;;;;;5096760;27;21386;-69
2022/06/08 13:18:38;;;;;;;2.83;1.23;;;16.70;99.90;;;;;;5093959;27;20044;-69
2022/06/08 13:21:07;;;;;;;2.58;1.48;;;16.70;99.90;;;;;;5098452;27;20035;-69
2022/06/08 13:23:33;;;;;;;2.20;1.50;;;16.80;99.90;;;;;;5083600;28;20485;-69
2022/06/08 13:26:00;;;;;;;2.78;1.70;;;16.80;99.90;;;;;;5092977;27;20043;-69
2022/06/08 13:28:29;;;;;;;2.47;1.45;;;16.80;99.90;;;;;;5098325;27;20586;-69
2022/06/08 13:30:56;;;;;;;5.65;1.50;;;16.90;99.90;;;;;;5089309;27;20667;-69